Souda — SVBH5 — position and weather

sailwx.info

Track history (hours):
 
Tides and Currents Weather Stations Pressure Air Temp Water Temp Dewpoint Dewpoint Depression Visibility Wind Speed Wind Dir Waves Ship Positions

Souda

Last reported at 2016-Sep-28 03:31 UTC. Time now 2016-Sep-28 12:02 UTC.
Position N 37°55' E 023°06'.

Length 88 m; draft 6.5 m.

Type: Tanker. MMSI: 241109000.

Date/timePositionNaut miles runAvg speedWind from/ knotsBaromVisibWave heightAir tempDewpointWater temp
2016-Sep-28 03:31N 37°55' E 023°06'0 0.0
2016-Sep-28 02:28N 37°55' E 023°06'0 0.0
2016-Sep-28 01:22N 37°55' E 023°06'0 0.0
2016-Sep-27 23:19N 37°55' E 023°06'0 0.0
2016-Sep-27 19:31N 37°55' E 023°06'0 0.0
2016-Sep-27 14:28N 37°55' E 023°06'0 0.0
2016-Sep-27 13:31N 37°55' E 023°06'0 0.0
2016-Sep-26 20:31N 37°55' E 023°06'0 0.0
2016-Sep-26 19:33N 37°55' E 023°06'0 0.0
2016-Sep-26 15:33N 37°55' E 023°06'0 0.0
2016-Sep-26 13:31N 37°55' E 023°06'0 0.0
2016-Sep-26 11:24N 37°55' E 023°06'0 0.0
2016-Sep-26 08:13N 37°55' E 023°06'0 0.0
2016-Sep-26 02:33N 37°55' E 023°06'0 0.0
2016-Sep-26 01:27N 37°55' E 023°06'0 0.0
2016-Sep-26 00:33N 37°55' E 023°06'0 0.0
2016-Sep-25 21:33N 37°55' E 023°06'0 0.0
2016-Sep-25 17:27N 37°55' E 023°06'0 0.0
2016-Sep-25 16:33N 37°55' E 023°06'0 0.0
2016-Sep-25 15:33N 37°55' E 023°06'0 0.0
2016-Sep-25 14:33N 37°55' E 023°06'0 0.0
2016-Sep-25 12:27N 37°55' E 023°06'0 0.0
2016-Sep-25 11:30N 37°55' E 023°06'4 4.2
2016-Sep-25 10:31N 37°53' E 023°11'9 9.4
2016-Sep-25 09:33N 37°51' E 023°22'18 8.8
2016-Sep-25 07:33N 37°45' E 023°42'25 8.0
2016-Sep-25 04:26N 37°41' E 024°14'51 8.4
2016-Sep-24 22:26N 38°30' E 024°28'147 7.8
2016-Sep-24 03:31N 40°38' E 022°53'0 0.0
2016-Sep-24 02:22N 40°38' E 022°53'0 0.0
2016-Sep-24 01:25N 40°38' E 022°53'0 0.0
2016-Sep-24 00:25N 40°38' E 022°53'0 0.0
2016-Sep-23 19:31N 40°38' E 022°53'0 0.0
2016-Sep-23 17:31N 40°38' E 022°53'0 0.0
2016-Sep-23 16:19N 40°38' E 022°53'0 0.0
2016-Sep-23 15:31N 40°38' E 022°53'0 0.0
2016-Sep-23 13:31N 40°38' E 022°53'0 0.0
2016-Sep-23 09:25N 40°38' E 022°53'0 0.0
2016-Sep-23 06:28N 40°38' E 022°53'3 1.3
2016-Sep-23 04:24N 40°36' E 022°56'0 0.0
2016-Sep-23 03:27N 40°36' E 022°56'0 0.0
2016-Sep-23 02:27N 40°36' E 022°56'0 0.0
2016-Sep-23 01:27N 40°36' E 022°56'0 0.0
2016-Sep-23 00:30N 40°36' E 022°56'0 0.0
2016-Sep-22 23:30N 40°36' E 022°56'0 0.0
2016-Sep-22 20:33N 40°36' E 022°56'177 6.3
2016-Sep-21 16:33N 37°56' E 024°36'46 6.6
2016-Sep-21 09:33N 37°47' E 023°38'8 8.1
2016-Sep-21 08:33N 37°50' E 023°29'19 0.8
2016-Sep-20 08:32N 37°55' E 023°06'7 6.9
2016-Sep-20 07:33N 37°52' E 023°14'9 8.9
2016-Sep-20 06:33N 37°51' E 023°25'11 2.6
2016-Sep-20 02:29N 37°58' E 023°35'0 0.0
2016-Sep-19 23:26N 37°58' E 023°35'0 0.0
2016-Sep-19 19:29N 37°58' E 023°35'0 0.0
2016-Sep-19 18:29N 37°58' E 023°35'0 0.0
2016-Sep-19 16:29N 37°58' E 023°35'0 0.0
2016-Sep-19 14:32N 37°58' E 023°35'0 0.0
2016-Sep-19 13:29N 37°58' E 023°35'0 0.0
2016-Sep-19 12:32N 37°58' E 023°35'0 0.0
2016-Sep-19 11:32N 37°58' E 023°35'0 0.0
2016-Sep-19 09:26N 37°58' E 023°35'0 0.0
2016-Sep-19 07:32N 37°58' E 023°35'0 0.0
2016-Sep-19 06:29N 37°58' E 023°35'0 0.0
2016-Sep-19 03:32N 37°58' E 023°35'0 0.0
2016-Sep-19 02:32N 37°58' E 023°35'0 0.0
2016-Sep-19 00:32N 37°58' E 023°35'0 0.0
2016-Sep-18 19:32N 37°58' E 023°35'0 0.0
2016-Sep-18 15:32N 37°58' E 023°35'0 0.0
2016-Sep-18 14:32N 37°58' E 023°35'0 0.0
2016-Sep-18 10:32N 37°58' E 023°35'0 0.0
2016-Sep-18 09:32N 37°58' E 023°35'  
Track history (hours):
 
Tides and Currents Weather Stations Pressure Air Temp Water Temp Dewpoint Dewpoint Depression Visibility Wind Speed Wind Dir Waves Ship Positions

Souda

Last reported at 2016-Sep-28 03:31 UTC. Time now 2016-Sep-28 12:02 UTC.
Position N 37°55' E 023°06'.

Length 88 m; draft 6.5 m.

Type: Tanker. MMSI: 241109000.

Date/timePositionNaut miles runAvg speedWind from/ knotsBaromVisibWave heightAir tempDewpointWater temp
2016-Sep-28 03:31N 37°55' E 023°06'0 0.0
2016-Sep-28 02:28N 37°55' E 023°06'0 0.0
2016-Sep-28 01:22N 37°55' E 023°06'0 0.0
2016-Sep-27 23:19N 37°55' E 023°06'0 0.0
2016-Sep-27 19:31N 37°55' E 023°06'0 0.0
2016-Sep-27 14:28N 37°55' E 023°06'0 0.0
2016-Sep-27 13:31N 37°55' E 023°06'0 0.0
2016-Sep-26 20:31N 37°55' E 023°06'0 0.0
2016-Sep-26 19:33N 37°55' E 023°06'0 0.0
2016-Sep-26 15:33N 37°55' E 023°06'0 0.0
2016-Sep-26 13:31N 37°55' E 023°06'0 0.0
2016-Sep-26 11:24N 37°55' E 023°06'0 0.0
2016-Sep-26 08:13N 37°55' E 023°06'0 0.0
2016-Sep-26 02:33N 37°55' E 023°06'0 0.0
2016-Sep-26 01:27N 37°55' E 023°06'0 0.0
2016-Sep-26 00:33N 37°55' E 023°06'0 0.0
2016-Sep-25 21:33N 37°55' E 023°06'0 0.0
2016-Sep-25 17:27N 37°55' E 023°06'0 0.0
2016-Sep-25 16:33N 37°55' E 023°06'0 0.0
2016-Sep-25 15:33N 37°55' E 023°06'0 0.0
2016-Sep-25 14:33N 37°55' E 023°06'0 0.0
2016-Sep-25 12:27N 37°55' E 023°06'0 0.0
2016-Sep-25 11:30N 37°55' E 023°06'4 4.2
2016-Sep-25 10:31N 37°53' E 023°11'9 9.4
2016-Sep-25 09:33N 37°51' E 023°22'18 8.8
2016-Sep-25 07:33N 37°45' E 023°42'25 8.0
2016-Sep-25 04:26N 37°41' E 024°14'51 8.4
2016-Sep-24 22:26N 38°30' E 024°28'147 7.8
2016-Sep-24 03:31N 40°38' E 022°53'0 0.0
2016-Sep-24 02:22N 40°38' E 022°53'0 0.0
2016-Sep-24 01:25N 40°38' E 022°53'0 0.0
2016-Sep-24 00:25N 40°38' E 022°53'0 0.0
2016-Sep-23 19:31N 40°38' E 022°53'0 0.0
2016-Sep-23 17:31N 40°38' E 022°53'0 0.0
2016-Sep-23 16:19N 40°38' E 022°53'0 0.0
2016-Sep-23 15:31N 40°38' E 022°53'0 0.0
2016-Sep-23 13:31N 40°38' E 022°53'0 0.0
2016-Sep-23 09:25N 40°38' E 022°53'0 0.0
2016-Sep-23 06:28N 40°38' E 022°53'3 1.3
2016-Sep-23 04:24N 40°36' E 022°56'0 0.0
2016-Sep-23 03:27N 40°36' E 022°56'0 0.0
2016-Sep-23 02:27N 40°36' E 022°56'0 0.0
2016-Sep-23 01:27N 40°36' E 022°56'0 0.0
2016-Sep-23 00:30N 40°36' E 022°56'0 0.0
2016-Sep-22 23:30N 40°36' E 022°56'0 0.0
2016-Sep-22 20:33N 40°36' E 022°56'177 6.3
2016-Sep-21 16:33N 37°56' E 024°36'46 6.6
2016-Sep-21 09:33N 37°47' E 023°38'8 8.1
2016-Sep-21 08:33N 37°50' E 023°29'19 0.8
2016-Sep-20 08:32N 37°55' E 023°06'7 6.9
2016-Sep-20 07:33N 37°52' E 023°14'9 8.9
2016-Sep-20 06:33N 37°51' E 023°25'11 2.6
2016-Sep-20 02:29N 37°58' E 023°35'0 0.0
2016-Sep-19 23:26N 37°58' E 023°35'0 0.0
2016-Sep-19 19:29N 37°58' E 023°35'0 0.0
2016-Sep-19 18:29N 37°58' E 023°35'0 0.0
2016-Sep-19 16:29N 37°58' E 023°35'0 0.0
2016-Sep-19 14:32N 37°58' E 023°35'0 0.0
2016-Sep-19 13:29N 37°58' E 023°35'0 0.0
2016-Sep-19 12:32N 37°58' E 023°35'0 0.0
2016-Sep-19 11:32N 37°58' E 023°35'0 0.0
2016-Sep-19 09:26N 37°58' E 023°35'0 0.0
2016-Sep-19 07:32N 37°58' E 023°35'0 0.0
2016-Sep-19 06:29N 37°58' E 023°35'0 0.0
2016-Sep-19 03:32N 37°58' E 023°35'0 0.0
2016-Sep-19 02:32N 37°58' E 023°35'0 0.0
2016-Sep-19 00:32N 37°58' E 023°35'0 0.0
2016-Sep-18 19:32N 37°58' E 023°35'0 0.0
2016-Sep-18 15:32N 37°58' E 023°35'0 0.0
2016-Sep-18 14:32N 37°58' E 023°35'0 0.0
2016-Sep-18 10:32N 37°58' E 023°35'0 0.0
2016-Sep-18 09:32N 37°58' E 023°35'  

Dump ship's entire track history